Great — TCYV6 — position and weather

sailwx.info

Track history (hours):
 
Tides and Currents Weather Stations Pressure Air Temp Water Temp Dewpoint Dewpoint Depression Visibility Wind Speed Wind Dir Waves Ship Positions

Great

Last reported at 2015-Aug-25 04:33 UTC. Time now 2015-Sep-01 22:19 UTC.
Position N 40°57' E 028°55'.

Length 186 m; draft 9.7 m.

Type: Cargo ship. MMSI: 271042241.

Date/timePositionNaut miles runAvg speedWind from/ knotsBaromVisibWave heightAir tempDewpointWater temp
2015-Aug-25 04:33N 40°57' E 028°55'0 0.0
2015-Aug-25 03:25N 40°57' E 028°55'0 0.0
2015-Aug-25 02:32N 40°57' E 028°55'0 0.1
2015-Aug-25 01:21N 40°57' E 028°55'0 0.1
2015-Aug-25 00:27N 40°57' E 028°55'0 0.0
2015-Aug-24 23:25N 40°57' E 028°55'3 2.9
2015-Aug-24 22:33N 40°58' E 028°58'355 9.1
2015-Aug-23 07:32N 46°35' E 031°31'9 9.3
2015-Aug-23 06:33N 46°36' E 031°44'9 9.1
2015-Aug-23 05:33N 46°39' E 031°56'9 8.5
2015-Aug-23 04:33N 46°48' E 031°53'3 3.1
2015-Aug-23 03:33N 46°50' E 031°56'0 0.4
2015-Aug-23 02:32N 46°50' E 031°55'0 0.0
2015-Aug-23 01:33N 46°50' E 031°55'0 0.0
2015-Aug-23 00:33N 46°50' E 031°55'0 0.0
2015-Aug-22 23:33N 46°50' E 031°55'0 0.0
2015-Aug-22 22:33N 46°50' E 031°55'0 0.0
2015-Aug-22 21:33N 46°50' E 031°55'0 0.0
2015-Aug-22 20:33N 46°50' E 031°55'0 0.0
2015-Aug-22 19:34N 46°50' E 031°55'0 0.0
2015-Aug-22 18:33N 46°50' E 031°55'0 0.1
2015-Aug-22 17:31N 46°50' E 031°56'0 0.1
2015-Aug-22 16:34N 46°50' E 031°56'0 0.0
2015-Aug-22 15:33N 46°50' E 031°56'1 1.3
2015-Aug-22 14:33N 46°50' E 031°57'0 0.0
2015-Aug-22 13:30N 46°50' E 031°57'0 0.0
2015-Aug-22 12:33N 46°50' E 031°57'0 0.0
2015-Aug-22 11:31N 46°50' E 031°57'0 0.0
2015-Aug-22 10:31N 46°50' E 031°57'0 0.0
2015-Aug-22 09:32N 46°50' E 031°57'0 0.0
2015-Aug-22 08:31N 46°50' E 031°57'0 0.0
2015-Aug-22 07:33N 46°50' E 031°57'0 0.0
2015-Aug-22 06:33N 46°50' E 031°57'0 0.0
2015-Aug-22 05:31N 46°50' E 031°57'0 0.0
2015-Aug-22 04:33N 46°50' E 031°57'0 0.0
2015-Aug-22 03:33N 46°50' E 031°57'0 0.0
2015-Aug-22 02:31N 46°50' E 031°57'0 0.0
2015-Aug-22 01:31N 46°50' E 031°57'0 0.0
2015-Aug-22 00:33N 46°50' E 031°57'0 0.0
2015-Aug-21 23:33N 46°50' E 031°57'0 0.0
2015-Aug-21 22:32N 46°50' E 031°57'0 0.0
2015-Aug-21 21:33N 46°50' E 031°57'0 0.0
2015-Aug-21 20:33N 46°50' E 031°57'0 0.0
2015-Aug-21 19:32N 46°50' E 031°57'0 0.0
2015-Aug-21 18:33N 46°50' E 031°57'0 0.0
2015-Aug-21 17:33N 46°50' E 031°57'0 0.0
2015-Aug-21 16:30N 46°50' E 031°57'0 0.0
2015-Aug-21 15:32N 46°50' E 031°57'0 0.0
2015-Aug-21 14:31N 46°50' E 031°57'0 0.0
2015-Aug-21 13:23N 46°50' E 031°57'0 0.0
2015-Aug-21 12:32N 46°50' E 031°57'0 0.0
2015-Aug-21 11:32N 46°50' E 031°57'0 0.0
2015-Aug-21 10:31N 46°50' E 031°57'0 0.0
2015-Aug-21 09:31N 46°50' E 031°57'0 0.0
2015-Aug-21 08:25N 46°50' E 031°57'0 0.0
2015-Aug-21 07:31N 46°50' E 031°57'0 0.0
2015-Aug-21 06:31N 46°50' E 031°57'0 0.0
2015-Aug-21 05:31N 46°50' E 031°57'0 0.0
2015-Aug-21 04:28N 46°50' E 031°57'0 0.0
2015-Aug-21 03:31N 46°50' E 031°57'0 0.0
2015-Aug-21 02:31N 46°50' E 031°57'0 0.0
2015-Aug-21 01:28N 46°50' E 031°57'0 0.0
2015-Aug-21 00:31N 46°50' E 031°57'0 0.0
2015-Aug-20 23:31N 46°50' E 031°57'0 0.0
2015-Aug-20 22:28N 46°50' E 031°57'0 0.0
2015-Aug-20 21:31N 46°50' E 031°57'0 0.0
2015-Aug-20 20:31N 46°50' E 031°57'0 0.0
2015-Aug-20 19:31N 46°50' E 031°57'0 0.0
2015-Aug-20 18:28N 46°50' E 031°57'0 0.0
2015-Aug-20 17:31N 46°50' E 031°57'0 0.0
2015-Aug-20 16:31N 46°50' E 031°57'0 0.0
2015-Aug-20 15:31N 46°50' E 031°57'0 0.0
2015-Aug-20 14:31N 46°50' E 031°57'0 0.0
2015-Aug-20 13:31N 46°50' E 031°57'0 0.0
2015-Aug-20 12:25N 46°50' E 031°57'0 0.0
2015-Aug-20 11:31N 46°50' E 031°57'0 0.0
2015-Aug-20 10:31N 46°50' E 031°57'0 0.0
2015-Aug-20 09:31N 46°50' E 031°57'0 0.0
2015-Aug-20 08:31N 46°50' E 031°57'0 0.0
2015-Aug-20 07:31N 46°50' E 031°57'0 0.0
2015-Aug-20 06:31N 46°50' E 031°57'0 0.0
2015-Aug-20 05:31N 46°50' E 031°57'0 0.0
2015-Aug-20 04:31N 46°50' E 031°57'0 0.0
2015-Aug-20 03:31N 46°50' E 031°57'0 0.0
2015-Aug-20 02:28N 46°50' E 031°57'0 0.0
2015-Aug-20 01:31N 46°50' E 031°57'0 0.0
2015-Aug-20 00:28N 46°50' E 031°57'0 0.0
2015-Aug-19 23:33N 46°50' E 031°57'0 0.0
2015-Aug-19 22:33N 46°50' E 031°57'0 0.0
2015-Aug-19 21:31N 46°50' E 031°57'0 0.0
2015-Aug-19 20:33N 46°50' E 031°57'0 0.0
2015-Aug-19 19:33N 46°50' E 031°57'0 0.0
2015-Aug-19 18:33N 46°50' E 031°57'0 0.0
2015-Aug-19 17:33N 46°50' E 031°57'0 0.2
2015-Aug-19 16:31N 46°50' E 031°57'0 0.0
2015-Aug-19 15:31N 46°50' E 031°57'0 0.0
2015-Aug-19 14:31N 46°50' E 031°57'0 0.0
2015-Aug-19 13:31N 46°50' E 031°57'0 0.0
2015-Aug-19 12:33N 46°50' E 031°57'5 5.1
2015-Aug-19 11:33N 46°46' E 031°53'9 8.6
2015-Aug-19 10:33N 46°37' E 031°53'1210.3
2015-Aug-19 09:25N 46°35' E 031°36'  
2015-Aug-15 18:26N 37°16' E 024°10'1010.9
2015-Aug-15 17:33N 37°09' E 024°03'1111.2
2015-Aug-15 16:33N 36°60' E 023°54'1211.8
2015-Aug-15 15:33N 36°51' E 023°45'1211.7
2015-Aug-15 14:33N 36°42' E 023°36'  
Track history (hours):
 
Tides and Currents Weather Stations Pressure Air Temp Water Temp Dewpoint Dewpoint Depression Visibility Wind Speed Wind Dir Waves Ship Positions

Great

Last reported at 2015-Aug-25 04:33 UTC. Time now 2015-Sep-01 22:19 UTC.
Position N 40°57' E 028°55'.

Length 186 m; draft 9.7 m.

Type: Cargo ship. MMSI: 271042241.

Date/timePositionNaut miles runAvg speedWind from/ knotsBaromVisibWave heightAir tempDewpointWater temp
2015-Aug-25 04:33N 40°57' E 028°55'0 0.0
2015-Aug-25 03:25N 40°57' E 028°55'0 0.0
2015-Aug-25 02:32N 40°57' E 028°55'0 0.1
2015-Aug-25 01:21N 40°57' E 028°55'0 0.1
2015-Aug-25 00:27N 40°57' E 028°55'0 0.0
2015-Aug-24 23:25N 40°57' E 028°55'3 2.9
2015-Aug-24 22:33N 40°58' E 028°58'355 9.1
2015-Aug-23 07:32N 46°35' E 031°31'9 9.3
2015-Aug-23 06:33N 46°36' E 031°44'9 9.1
2015-Aug-23 05:33N 46°39' E 031°56'9 8.5
2015-Aug-23 04:33N 46°48' E 031°53'3 3.1
2015-Aug-23 03:33N 46°50' E 031°56'0 0.4
2015-Aug-23 02:32N 46°50' E 031°55'0 0.0
2015-Aug-23 01:33N 46°50' E 031°55'0 0.0
2015-Aug-23 00:33N 46°50' E 031°55'0 0.0
2015-Aug-22 23:33N 46°50' E 031°55'0 0.0
2015-Aug-22 22:33N 46°50' E 031°55'0 0.0
2015-Aug-22 21:33N 46°50' E 031°55'0 0.0
2015-Aug-22 20:33N 46°50' E 031°55'0 0.0
2015-Aug-22 19:34N 46°50' E 031°55'0 0.0
2015-Aug-22 18:33N 46°50' E 031°55'0 0.1
2015-Aug-22 17:31N 46°50' E 031°56'0 0.1
2015-Aug-22 16:34N 46°50' E 031°56'0 0.0
2015-Aug-22 15:33N 46°50' E 031°56'1 1.3
2015-Aug-22 14:33N 46°50' E 031°57'0 0.0
2015-Aug-22 13:30N 46°50' E 031°57'0 0.0
2015-Aug-22 12:33N 46°50' E 031°57'0 0.0
2015-Aug-22 11:31N 46°50' E 031°57'0 0.0
2015-Aug-22 10:31N 46°50' E 031°57'0 0.0
2015-Aug-22 09:32N 46°50' E 031°57'0 0.0
2015-Aug-22 08:31N 46°50' E 031°57'0 0.0
2015-Aug-22 07:33N 46°50' E 031°57'0 0.0
2015-Aug-22 06:33N 46°50' E 031°57'0 0.0
2015-Aug-22 05:31N 46°50' E 031°57'0 0.0
2015-Aug-22 04:33N 46°50' E 031°57'0 0.0
2015-Aug-22 03:33N 46°50' E 031°57'0 0.0
2015-Aug-22 02:31N 46°50' E 031°57'0 0.0
2015-Aug-22 01:31N 46°50' E 031°57'0 0.0
2015-Aug-22 00:33N 46°50' E 031°57'0 0.0
2015-Aug-21 23:33N 46°50' E 031°57'0 0.0
2015-Aug-21 22:32N 46°50' E 031°57'0 0.0
2015-Aug-21 21:33N 46°50' E 031°57'0 0.0
2015-Aug-21 20:33N 46°50' E 031°57'0 0.0
2015-Aug-21 19:32N 46°50' E 031°57'0 0.0
2015-Aug-21 18:33N 46°50' E 031°57'0 0.0
2015-Aug-21 17:33N 46°50' E 031°57'0 0.0
2015-Aug-21 16:30N 46°50' E 031°57'0 0.0
2015-Aug-21 15:32N 46°50' E 031°57'0 0.0
2015-Aug-21 14:31N 46°50' E 031°57'0 0.0
2015-Aug-21 13:23N 46°50' E 031°57'0 0.0
2015-Aug-21 12:32N 46°50' E 031°57'0 0.0
2015-Aug-21 11:32N 46°50' E 031°57'0 0.0
2015-Aug-21 10:31N 46°50' E 031°57'0 0.0
2015-Aug-21 09:31N 46°50' E 031°57'0 0.0
2015-Aug-21 08:25N 46°50' E 031°57'0 0.0
2015-Aug-21 07:31N 46°50' E 031°57'0 0.0
2015-Aug-21 06:31N 46°50' E 031°57'0 0.0
2015-Aug-21 05:31N 46°50' E 031°57'0 0.0
2015-Aug-21 04:28N 46°50' E 031°57'0 0.0
2015-Aug-21 03:31N 46°50' E 031°57'0 0.0
2015-Aug-21 02:31N 46°50' E 031°57'0 0.0
2015-Aug-21 01:28N 46°50' E 031°57'0 0.0
2015-Aug-21 00:31N 46°50' E 031°57'0 0.0
2015-Aug-20 23:31N 46°50' E 031°57'0 0.0
2015-Aug-20 22:28N 46°50' E 031°57'0 0.0
2015-Aug-20 21:31N 46°50' E 031°57'0 0.0
2015-Aug-20 20:31N 46°50' E 031°57'0 0.0
2015-Aug-20 19:31N 46°50' E 031°57'0 0.0
2015-Aug-20 18:28N 46°50' E 031°57'0 0.0
2015-Aug-20 17:31N 46°50' E 031°57'0 0.0
2015-Aug-20 16:31N 46°50' E 031°57'0 0.0
2015-Aug-20 15:31N 46°50' E 031°57'0 0.0
2015-Aug-20 14:31N 46°50' E 031°57'0 0.0
2015-Aug-20 13:31N 46°50' E 031°57'0 0.0
2015-Aug-20 12:25N 46°50' E 031°57'0 0.0
2015-Aug-20 11:31N 46°50' E 031°57'0 0.0
2015-Aug-20 10:31N 46°50' E 031°57'0 0.0
2015-Aug-20 09:31N 46°50' E 031°57'0 0.0
2015-Aug-20 08:31N 46°50' E 031°57'0 0.0
2015-Aug-20 07:31N 46°50' E 031°57'0 0.0
2015-Aug-20 06:31N 46°50' E 031°57'0 0.0
2015-Aug-20 05:31N 46°50' E 031°57'0 0.0
2015-Aug-20 04:31N 46°50' E 031°57'0 0.0
2015-Aug-20 03:31N 46°50' E 031°57'0 0.0
2015-Aug-20 02:28N 46°50' E 031°57'0 0.0
2015-Aug-20 01:31N 46°50' E 031°57'0 0.0
2015-Aug-20 00:28N 46°50' E 031°57'0 0.0
2015-Aug-19 23:33N 46°50' E 031°57'0 0.0
2015-Aug-19 22:33N 46°50' E 031°57'0 0.0
2015-Aug-19 21:31N 46°50' E 031°57'0 0.0
2015-Aug-19 20:33N 46°50' E 031°57'0 0.0
2015-Aug-19 19:33N 46°50' E 031°57'0 0.0
2015-Aug-19 18:33N 46°50' E 031°57'0 0.0
2015-Aug-19 17:33N 46°50' E 031°57'0 0.2
2015-Aug-19 16:31N 46°50' E 031°57'0 0.0
2015-Aug-19 15:31N 46°50' E 031°57'0 0.0
2015-Aug-19 14:31N 46°50' E 031°57'0 0.0
2015-Aug-19 13:31N 46°50' E 031°57'0 0.0
2015-Aug-19 12:33N 46°50' E 031°57'5 5.1
2015-Aug-19 11:33N 46°46' E 031°53'9 8.6
2015-Aug-19 10:33N 46°37' E 031°53'1210.3
2015-Aug-19 09:25N 46°35' E 031°36'  
2015-Aug-15 18:26N 37°16' E 024°10'1010.9
2015-Aug-15 17:33N 37°09' E 024°03'1111.2
2015-Aug-15 16:33N 36°60' E 023°54'1211.8
2015-Aug-15 15:33N 36°51' E 023°45'1211.7
2015-Aug-15 14:33N 36°42' E 023°36'  

Dump ship's entire track history